Messwerte Abadan

Temperatur

Temperatur
°C
1594366200 12.00 12.00 44
1594369800 13.00 13.00 45
1594373400 14.00 14.00 47
1594377000 15.00 15.00 48
1594380600 16.00 16.00 49
1594384200 17.00 17.00 49
1594387800 18.00 18.00 49
1594391400 19.00 19.00 49
1594395000 20.00 20.00 48
1594398600 21.00 21.00 45
1594402200 22.00 22.00 41
1594405800 23.00 23.00 38
1594409400 0.00 0.00 37
1594413000 1.00 1.00
1594416600 2.00 2.00 35
1594420200 3.00 3.00 37
1594423800 4.00 4.00
1594427400 5.00 5.00 35
1594431000 6.00 6.00 33
1594434600 7.00 7.00 33
1594438200 8.00 8.00 33
1594441800 9.00 9.00 34
1594445400 10.00 10.00 36
1594449000 11.00 11.00 39

Aktuellste Messwerte

Wettercharakter
Wetter: recht sonnig
Temperatur
44 °C
Feuchtigkeit
15 %
Wind
15 km/hWindrichtung: Nordwest
Luftdruck
996 hPa
Messzeit: 11. Juli 2020, 11.30Datenquelle: METAR

Weitere Messstationen in der Nähe

Messstation Temperatur Entfernung
Ahwaz 42 °C 114 km
Kuwait-Stadt 44 °C 130 km
Omidiyeh 44 °C 143 km
Kharg 35 °C 230 km
Gach Saran 43 °C 247 km
Buschehr 39 °C 297 km
Hafar Al-Batin 43 °C 307 km

Wind

Windrichtung Böen Mittelwind
° km/h km/h
1594366200 12.00 11.00 - 12.00 240° 10
1594369800 13.00 12.00 - 13.00 200° 5
1594373400 14.00 13.00 - 14.00 150° 5
1594377000 15.00 14.00 - 15.00 330° 5
1594380600 16.00 15.00 - 16.00 0
1594384200 17.00 16.00 - 17.00 10° 10
1594387800 18.00 17.00 - 18.00 20° 20
1594391400 19.00 18.00 - 19.00 20° 5
1594395000 20.00 19.00 - 20.00 300° 5
1594398600 21.00 20.00 - 21.00 0
1594402200 22.00 21.00 - 22.00 190° 5
1594405800 23.00 22.00 - 23.00 210° 5
1594409400 0.00 23.00 - 0.00 0
1594413000 1.00 0.00 - 1.00
1594416600 2.00 1.00 - 2.00 0
1594420200 3.00 2.00 - 3.00 290° 5
1594423800 4.00 3.00 - 4.00
1594427400 5.00 4.00 - 5.00 330° 5
1594431000 6.00 5.00 - 6.00 270° 5
1594434600 7.00 6.00 - 7.00 290° 5
1594438200 8.00 7.00 - 8.00 240° 5
1594441800 9.00 8.00 - 9.00 250° 5
1594445400 10.00 9.00 - 10.00 280° 5
1594449000 11.00 10.00 - 11.00 310° 10

Ihre Wetterstation

Fehlt Ihre Wetterstation auf unserem Portal?

Schreiben Sie an network@meteonews.ch

Klima

Wann ist es am wärmsten? Wann regnet es am wenigsten? Unsere Klimadaten geben Auskunft.